Time;durP1;ratioP1;P1;durP2;ratioP2;P2;SDS_P1;SDS_P2;PMS_P1;PMS_P2;Temp;Humidity;BMP_temperature;BMP_pressure;BME280_temperature;BME280_humidity;BME280_pressure;Samples;Min_cycle;Max_cycle;Signal;HPM_P1;HPM_P2
2023/10/06 00:00:34;;;;;;;;;18.00;14.00;;;;;16.02;61.06;102285.94;5036584;28;45443;-42
2023/10/06 00:03:05;;;;;;;;;14.00;11.67;;;;;16.02;61.26;102277.88;5035909;28;46888;-40
2023/10/06 00:05:30;;;;;;;;;14.33;12.33;;;;;16.04;61.03;102288.47;5035880;28;45361;-40
2023/10/06 00:07:57;;;;;;;;;14.67;11.00;;;;;16.04;61.16;102289.31;5035899;28;45257;-40
2023/10/06 00:10:27;;;;;;;;;10.67;10.00;;;;;16.00;60.99;102287.91;5035512;28;45362;-40
2023/10/06 00:12:59;;;;;;;;;19.00;13.33;;;;;15.98;60.93;102281.84;5035641;28;46908;-39
2023/10/06 00:15:44;;;;;;;;;19.00;11.00;;;;;15.94;60.87;102291.16;5035777;28;45312;-39
2023/10/06 00:18:19;;;;;;;;;13.00;9.67;;;;;15.90;61.21;102292.44;5035843;28;45328;-40
2023/10/06 00:20:55;;;;;;;;;23.67;10.33;;;;;15.82;61.15;102290.47;5035660;27;45543;-40
2023/10/06 00:23:22;;;;;;;;;14.67;11.00;;;;;15.79;61.17;102289.91;5035577;28;45563;-41
2023/10/06 00:25:52;;;;;;;;;13.33;12.00;;;;;15.81;61.17;102304.03;5034405;28;45534;-42
2023/10/06 00:28:25;;;;;;;;;19.00;11.67;;;;;15.81;61.33;102298.69;5035683;28;45494;-41
2023/10/06 00:30:57;;;;;;;;;11.67;10.67;;;;;15.81;61.30;102298.69;5035370;28;45539;-41
2023/10/06 00:33:26;;;;;;;;;11.00;10.33;;;;;15.80;61.23;102305.00;5035642;28;45446;-41
2023/10/06 00:35:51;;;;;;;;;17.33;11.00;;;;;15.70;61.18;102291.63;5035153;28;45202;-40
2023/10/06 00:38:17;;;;;;;;;13.00;11.00;;;;;15.70;61.65;102305.88;5035674;28;45288;-39
2023/10/06 00:40:51;;;;;;;;;13.00;11.67;;;;;15.69;61.61;102303.34;5035765;28;45288;-39
2023/10/06 00:43:28;;;;;;;;;16.33;12.00;;;;;15.67;61.69;102306.19;5035369;28;47129;-40
2023/10/06 00:45:53;;;;;;;;;22.33;14.67;;;;;15.62;61.91;102302.16;5035258;28;45238;-39
2023/10/06 00:48:19;;;;;;;;;12.67;11.33;;;;;15.64;61.73;102303.78;5035516;28;45216;-41
2023/10/06 00:50:45;;;;;;;;;13.33;13.00;;;;;15.60;61.80;102296.97;5035488;28;45498;-40
2023/10/06 00:53:13;;;;;;;;;19.33;13.00;;;;;15.51;61.82;102279.03;5035256;28;47082;-40
2023/10/06 00:55:40;;;;;;;;;12.00;9.33;;;;;15.59;62.03;102300.63;5035506;28;45391;-40
2023/10/06 00:58:11;;;;;;;;;14.67;11.00;;;;;15.59;62.04;102300.63;5034967;28;45352;-40
2023/10/06 01:00:38;;;;;;;;;21.00;11.33;;;;;15.57;62.00;102299.06;5035864;28;45492;-42
2023/10/06 01:03:14;;;;;;;;;16.00;11.33;;;;;15.56;62.21;102302.75;5035220;28;45423;-41
2023/10/06 01:05:45;;;;;;;;;20.00;14.33;;;;;15.40;62.44;102273.81;5034974;28;45331;-41
2023/10/06 01:08:11;;;;;;;;;15.00;12.33;;;;;15.53;62.57;102281.56;5035287;28;45397;-41
2023/10/06 01:10:37;;;;;;;;;15.67;11.00;;;;;15.54;62.70;102283.25;5035282;28;45266;-40
2023/10/06 01:13:12;;;;;;;;;12.67;10.33;;;;;15.44;62.83;102283.25;5034861;28;46312;-41
2023/10/06 01:15:49;;;;;;;;;15.33;11.00;;;;;15.33;62.26;102259.25;5034543;28;45463;-40
2023/10/06 01:18:19;;;;;;;;;17.33;11.67;;;;;15.49;62.73;102283.69;5035122;28;45338;-40
2023/10/06 01:20:46;;;;;;;;;19.33;11.67;;;;;15.50;62.67;102279.16;5034823;27;45321;-42
2023/10/06 01:23:21;;;;;;;;;19.33;15.67;;;;;15.41;62.51;102270.97;5033551;28;45409;-42
2023/10/06 01:25:59;;;;;;;;;12.33;9.67;;;;;15.49;62.88;102281.00;5034581;28;45454;-42
2023/10/06 01:28:25;;;;;;;;;12.67;11.00;;;;;15.48;62.52;102277.47;5034992;28;45436;-43
2023/10/06 01:30:54;;;;;;;;;15.00;11.67;;;;;15.44;62.72;102275.22;5034985;28;45286;-42
2023/10/06 01:33:19;;;;;;;;;13.00;11.67;;;;;15.40;62.85;102274.66;5034678;28;45431;-41
2023/10/06 01:35:47;;;;;;;;;15.33;12.00;;;;;15.38;63.03;102279.31;5034448;28;45552;-42
2023/10/06 01:38:26;;;;;;;;;15.33;10.00;;;;;15.35;63.17;102281.44;5034844;28;45427;-40
2023/10/06 01:40:53;;;;;;;;;14.67;12.33;;;;;15.29;63.30;102280.13;5035004;28;45379;-39
2023/10/06 01:43:22;;;;;;;;;18.67;12.00;;;;;15.18;63.32;102257.00;5034434;28;45279;-41
2023/10/06 01:45:49;;;;;;;;;13.00;10.00;;;;;15.23;63.43;102267.31;5033340;28;45406;-41
2023/10/06 01:50:48;;;;;;;;;20.67;14.00;;;;;15.23;63.42;102268.16;5034704;28;45311;-41
2023/10/06 01:53:18;;;;;;;;;25.67;15.00;;;;;15.17;63.50;102271.41;5034469;28;47230;-41
2023/10/06 01:55:49;;;;;;;;;22.67;15.67;;;;;14.99;63.79;102243.56;5034525;28;45240;-42
2023/10/06 01:58:15;;;;;;;;;17.00;12.33;;;;;15.09;64.22;102265.91;5034128;28;45444;-41
2023/10/06 02:00:40;;;;;;;;;18.67;13.33;;;;;15.05;64.07;102259.13;5034777;28;45304;-41
2023/10/06 02:03:11;;;;;;;;;18.00;12.00;;;;;15.05;64.20;102260.94;5034188;28;48604;-41
2023/10/06 02:05:40;;;;;;;;;15.33;10.67;;;;;15.02;64.53;102259.38;5034381;28;45466;-41
2023/10/06 02:08:09;;;;;;;;;13.33;11.00;;;;;14.96;64.27;102258.13;5034470;28;45366;-41
2023/10/06 02:10:35;;;;;;;;;12.67;12.33;;;;;14.97;63.72;102267.84;5034840;28;45360;-41
2023/10/06 02:13:00;;;;;;;;;11.67;11.67;;;;;14.95;64.29;102268.94;5034220;28;46024;-42
2023/10/06 02:15:26;;;;;;;;;11.33;9.67;;;;;14.91;64.42;102259.50;5033975;28;46135;-40
2023/10/06 02:17:51;;;;;;;;;18.00;11.33;;;;;14.89;64.74;102264.16;5034219;28;45404;-42
2023/10/06 02:22:55;;;;;;;;;15.33;12.67;;;;;14.83;64.39;102262.00;5033992;28;45349;-42
2023/10/06 02:25:21;;;;;;;;;13.00;12.33;;;;;14.77;64.87;102262.56;5034143;28;45249;-42
2023/10/06 02:27:50;;;;;;;;;10.33;5.00;;;;;14.75;64.81;102262.72;5034071;28;45435;-42
2023/10/06 02:30:15;;;;;;;;;15.33;10.67;;;;;14.71;65.35;102262.16;5034368;28;45355;-41
2023/10/06 02:32:44;;;;;;;;;20.67;12.00;;;;;14.70;65.19;102262.25;5033489;28;47165;-42
2023/10/06 02:35:10;;;;;;;;;13.00;9.67;;;;;14.67;64.68;102259.88;5033703;28;45421;-41
2023/10/06 02:37:35;;;;;;;;;16.00;9.67;;;;;14.63;65.09;102250.41;5034136;28;45320;-41
2023/10/06 02:40:10;;;;;;;;;15.33;12.33;;;;;14.59;64.90;102265.06;5034094;28;45415;-41
2023/10/06 02:42:40;;;;;;;;;15.33;11.00;;;;;14.56;65.28;102257.28;5033817;28;45704;-41
2023/10/06 02:45:06;;;;;;;;;11.67;9.67;;;;;14.52;64.90;102259.41;5033635;28;45275;-41
2023/10/06 02:47:32;;;;;;;;;14.33;13.00;;;;;14.48;65.75;102255.25;5033856;28;45391;-40
2023/10/06 02:49:59;;;;;;;;;17.33;9.00;;;;;14.42;65.96;102250.47;5033737;28;45348;-41
2023/10/06 02:52:30;;;;;;;;;14.67;11.00;;;;;14.39;66.02;102251.56;5033568;28;45591;-41
2023/10/06 02:55:08;;;;;;;;;21.00;11.00;;;;;14.41;65.80;102254.09;5033360;28;45378;-41
2023/10/06 02:57:43;;;;;;;;;15.00;10.00;;;;;14.43;65.91;102252.16;5033663;28;45346;-41
2023/10/06 03:00:32;;;;;;;;;19.67;14.67;;;;;14.41;65.84;102248.75;5033750;28;45377;-41
2023/10/06 03:03:03;;;;;;;;;12.67;10.00;;;;;14.36;66.05;102242.94;5033252;28;45440;-42
2023/10/06 03:05:32;;;;;;;;;14.67;12.00;;;;;14.41;65.94;102249.63;5033304;28;45465;-42
2023/10/06 03:08:00;;;;;;;;;17.67;12.33;;;;;14.29;65.94;102242.66;5033532;28;45220;-40
2023/10/06 03:10:27;;;;;;;;;15.67;12.00;;;;;14.41;66.28;102257.66;5033645;28;45398;-41
2023/10/06 03:12:53;;;;;;;;;17.33;13.00;;;;;14.40;65.88;102263.97;5033256;28;45339;-41
2023/10/06 03:15:29;;;;;;;;;12.67;12.67;;;;;14.36;65.75;102256.34;5031978;28;45421;-41
2023/10/06 03:18:00;;;;;;;;;18.67;12.00;;;;;14.37;66.06;102266.94;5033394;28;45458;-42
2023/10/06 03:20:29;;;;;;;;;15.67;10.33;;;;;14.33;65.97;102267.34;5033199;27;45432;-40
2023/10/06 03:22:55;;;;;;;;;16.67;12.00;;;;;14.32;66.26;102260.25;5032993;28;46238;-41
2023/10/06 03:25:22;;;;;;;;;14.67;10.33;;;;;14.29;66.40;102263.22;5033198;28;45483;-41
2023/10/06 03:27:53;;;;;;;;;11.00;10.00;;;;;14.25;66.19;102262.63;5033496;28;45241;-41
2023/10/06 03:30:27;;;;;;;;;14.33;11.00;;;;;14.21;66.23;102261.22;5033531;28;45467;-42
2023/10/06 03:32:57;;;;;;;;;16.00;10.67;;;;;14.10;66.74;102254.09;5033422;28;46240;-41
2023/10/06 03:35:36;;;;;;;;;17.67;9.33;;;;;14.10;66.76;102262.13;5033502;28;45295;-42
2023/10/06 03:38:08;;;;;;;;;15.33;10.67;;;;;14.03;66.88;102254.75;5033570;28;45267;-40
2023/10/06 03:40:48;;;;;;;;;11.00;9.00;;;;;14.06;66.76;102255.34;5033147;28;45376;-39
2023/10/06 03:43:13;;;;;;;;;14.33;13.33;;;;;14.09;66.90;102262.28;5032330;28;45397;-43
2023/10/06 03:45:40;;;;;;;;;14.67;8.33;;;;;14.01;66.84;102254.91;5032763;28;45331;-41
2023/10/06 03:48:11;;;;;;;;;14.00;11.00;;;;;14.08;66.91;102258.75;5036148;28;45465;-39
2023/10/06 03:50:42;;;;;;;;;17.00;11.33;;;;;14.04;66.59;102257.31;5036137;28;45502;-41
2023/10/06 03:53:09;;;;;;;;;17.00;12.33;;;;;14.04;66.95;102256.47;5035866;28;47076;-41
2023/10/06 03:55:45;;;;;;;;;17.33;11.00;;;;;14.00;67.12;102255.88;5035882;28;45239;-40
2023/10/06 03:58:13;;;;;;;;;15.33;11.33;;;;;13.95;67.16;102256.28;5035847;28;45454;-40
2023/10/06 04:00:40;;;;;;;;;15.33;13.00;;;;;13.96;67.13;102259.81;5036249;28;45344;-40
2023/10/06 04:03:10;;;;;;;;;12.00;10.00;;;;;13.95;67.63;102264.31;5035588;28;46255;-41
2023/10/06 04:05:38;;;;;;;;;14.67;12.00;;;;;13.92;67.59;102267.25;5035752;28;45403;-41
2023/10/06 04:08:08;;;;;;;;;12.33;10.67;;;;;13.91;67.87;102259.34;5035885;28;45247;-40
2023/10/06 04:10:34;;;;;;;;;13.67;12.67;;;;;13.94;67.96;102259.06;5035984;28;45574;-40
2023/10/06 04:13:00;;;;;;;;;12.67;10.67;;;;;13.96;67.53;102259.81;5035598;28;46316;-43
2023/10/06 04:15:26;;;;;;;;;13.33;11.00;;;;;13.95;67.81;102264.31;5035715;28;45497;-41
2023/10/06 04:17:52;;;;;;;;;10.00;9.00;;;;;13.95;67.46;102269.66;5035917;28;45452;-40
2023/10/06 04:20:17;;;;;;;;;14.00;11.33;;;;;13.96;67.44;102267.84;5035908;27;45448;-41
2023/10/06 04:22:42;;;;;;;;;14.33;9.00;;;;;13.89;67.57;102256.78;5035561;28;45343;-41
2023/10/06 04:25:10;;;;;;;;;14.33;14.00;;;;;13.91;67.69;102267.38;5035621;28;45283;-41
2023/10/06 04:27:36;;;;;;;;;19.00;14.33;;;;;13.85;67.55;102265.22;5035754;28;45253;-40
2023/10/06 04:30:04;;;;;;;;;15.33;10.00;;;;;13.71;67.83;102232.47;5035733;28;45237;-41
2023/10/06 04:32:30;;;;;;;;;11.67;10.00;;;;;13.86;67.87;102261.56;5035305;28;46221;-40
2023/10/06 04:34:55;;;;;;;;;22.33;13.33;;;;;13.85;67.96;102258.03;5035343;28;45372;-41
2023/10/06 04:37:20;;;;;;;;;85.00;62.25;;;;;13.86;68.13;102258.88;5035293;28;45437;-41
2023/10/06 04:39:45;;;;;;;;;58.50;46.00;;;;;13.87;68.09;102255.25;5035530;28;45350;-40
2023/10/06 04:42:11;;;;;;;;;26.33;19.33;;;;;13.86;67.75;102264.22;5035115;28;45333;-40
2023/10/06 04:44:36;;;;;;;;;18.33;16.33;;;;;13.85;68.01;102255.34;5035326;28;45290;-38
2023/10/06 04:47:01;;;;;;;;;20.33;13.67;;;;;13.87;68.29;102260.59;5035079;28;45350;-40
2023/10/06 04:49:28;;;;;;;;;14.33;10.67;;;;;13.88;68.20;102262.28;5035419;28;45269;-40
2023/10/06 04:51:54;;;;;;;;;16.67;14.67;;;;;13.88;68.03;102264.97;5034915;28;45359;-40
2023/10/06 04:54:20;;;;;;;;;21.00;13.67;;;;;13.87;68.27;102261.44;5034844;28;45653;-41
2023/10/06 04:56:45;;;;;;;;;14.33;13.00;;;;;13.86;68.29;102258.88;5035353;28;45247;-41
2023/10/06 04:59:11;;;;;;;;;24.33;17.00;;;;;13.81;68.26;102258.44;5035396;28;45376;-41
2023/10/06 05:01:36;;;;;;;;;18.33;11.33;;;;;13.80;68.35;102264.78;5034918;28;46065;-39
2023/10/06 05:04:06;;;;;;;;;16.00;11.67;;;;;13.76;68.44;102263.34;5035124;28;45409;-41
2023/10/06 05:06:32;;;;;;;;;19.00;14.67;;;;;13.74;69.11;102268.81;5034936;28;45388;-42
2023/10/06 05:08:57;;;;;;;;;18.33;14.33;;;;;13.67;68.69;102260.47;5035350;28;45288;-42
2023/10/06 05:11:23;;;;;;;;;20.00;15.00;;;;;13.73;69.27;102256.41;5035105;28;46414;-41
2023/10/06 05:13:55;;;;;;;;;18.67;15.33;;;;;13.72;68.57;102263.59;5034874;28;45817;-40
2023/10/06 05:16:22;;;;;;;;;25.00;21.33;;;;;13.70;69.11;102260.19;5035251;28;45475;-40
2023/10/06 05:18:48;;;;;;;;;21.00;17.00;;;;;13.67;69.11;102265.81;5035040;28;45474;-40
2023/10/06 05:21:15;;;;;;;;;19.67;16.33;;;;;13.65;69.22;102261.56;5034356;27;45240;-39
2023/10/06 05:23:41;;;;;;;;;12.67;12.00;;;;;13.63;69.08;102252.81;5034936;28;45380;-40
2023/10/06 05:26:10;;;;;;;;;17.67;13.00;;;;;13.63;68.94;102255.50;5034594;28;45252;-40
2023/10/06 05:28:37;;;;;;;;;14.00;10.00;;;;;13.60;69.01;102255.75;5034909;28;45330;-39
2023/10/06 05:31:02;;;;;;;;;20.33;16.33;;;;;13.56;68.92;102254.31;5034598;28;45283;-39
2023/10/06 05:33:28;;;;;;;;;18.33;14.67;;;;;13.45;69.49;102249.88;5034656;28;45492;-39
2023/10/06 05:35:53;;;;;;;;;23.67;18.67;;;;;13.44;69.38;102253.50;5033339;28;45338;-40
2023/10/06 05:38:19;;;;;;;;;20.00;18.00;;;;;13.26;69.24;102236.34;5034838;28;45424;-40
2023/10/06 05:40:49;;;;;;;;;23.00;15.00;;;;;13.38;69.26;102257.56;5034489;28;46276;-40
2023/10/06 05:43:17;;;;;;;;;17.00;11.33;;;;;13.34;69.75;102260.63;5034590;28;45347;-41
2023/10/06 05:45:43;;;;;;;;;18.33;14.67;;;;;13.29;69.48;102258.31;5034669;28;45386;-41
2023/10/06 05:48:10;;;;;;;;;17.33;15.33;;;;;13.29;69.44;102260.16;5034798;28;45282;-40
2023/10/06 05:50:36;;;;;;;;;23.67;15.00;;;;;13.26;69.69;102263.06;5034366;28;46990;-40
2023/10/06 05:53:04;;;;;;;;;17.00;9.67;;;;;13.22;69.82;102255.31;5034244;28;45663;-40
2023/10/06 05:55:30;;;;;;;;;20.00;18.67;;;;;13.16;69.96;102247.78;5034854;28;45293;-37
2023/10/06 05:57:56;;;;;;;;;17.67;13.33;;;;;13.17;69.73;102256.63;5034827;28;45550;-40
2023/10/06 06:00:27;;;;;;;;;22.33;17.33;;;;;13.05;70.33;102245.13;5034412;28;46280;-40
2023/10/06 06:02:54;;;;;;;;;18.00;15.33;;;;;13.11;70.11;102259.81;5034136;28;45308;-41
2023/10/06 06:05:20;;;;;;;;;18.00;17.67;;;;;13.14;70.53;102271.09;5034464;28;45192;-40
2023/10/06 06:07:45;;;;;;;;;20.67;17.00;;;;;13.13;70.10;102261.38;5033663;28;45171;-40
2023/10/06 06:10:14;;;;;;;;;19.67;16.33;;;;;13.13;70.60;102271.22;5034457;28;46108;-42
2023/10/06 06:12:41;;;;;;;;;23.67;15.33;;;;;13.09;70.86;102267.94;5034513;28;45377;-39
2023/10/06 06:15:11;;;;;;;;;19.00;16.67;;;;;13.11;70.84;102266.00;5034544;28;45237;-41
2023/10/06 06:17:38;;;;;;;;;25.00;18.67;;;;;13.04;70.92;102259.47;5034450;28;45354;-42
2023/10/06 06:20:07;;;;;;;;;23.33;15.00;;;;;13.14;70.49;102279.09;5033636;27;47004;-40
2023/10/06 06:22:36;;;;;;;;;24.00;17.67;;;;;13.17;70.45;102281.53;5033941;28;45386;-41
2023/10/06 06:25:04;;;;;;;;;19.00;16.00;;;;;13.18;70.71;102290.38;5034214;28;45411;-42
2023/10/06 06:27:31;;;;;;;;;16.33;14.00;;;;;13.16;70.79;102279.00;5034416;28;45345;-42
2023/10/06 06:29:57;;;;;;;;;24.33;18.00;;;;;13.20;70.45;102281.28;5034019;28;46375;-42
2023/10/06 06:32:25;;;;;;;;;21.00;19.67;;;;;13.20;70.86;102281.28;5034019;28;45394;-40
2023/10/06 06:34:51;;;;;;;;;18.67;14.67;;;;;13.21;70.37;102287.47;5034648;28;45339;-41
2023/10/06 06:37:16;;;;;;;;;20.33;18.33;;;;;13.17;70.40;102276.19;5034809;28;45458;-43
2023/10/06 06:39:44;;;;;;;;;19.00;13.67;;;;;13.31;70.26;102295.59;5033851;28;45906;-41
2023/10/06 06:42:10;;;;;;;;;21.67;16.67;;;;;13.41;70.22;102299.22;5033578;28;45358;-42
2023/10/06 06:44:36;;;;;;;;;15.00;13.67;;;;;13.48;69.98;102295.94;5033959;28;45300;-42
2023/10/06 06:47:02;;;;;;;;;20.67;19.67;;;;;13.55;69.82;102293.56;5032662;28;45737;-42
2023/10/06 06:49:27;;;;;;;;;21.00;17.33;;;;;13.62;69.41;102296.59;5033681;28;47082;-46
2023/10/06 06:51:53;;;;;;;;;18.00;15.67;;;;;13.65;69.05;102299.88;5032178;28;45248;-42
2023/10/06 06:54:19;;;;;;;;;22.67;16.33;;;;;13.69;69.23;102301.31;5033712;28;45235;-42
2023/10/06 06:56:47;;;;;;;;;22.33;18.67;;;;;13.72;69.04;102295.69;5033721;28;45530;-42
2023/10/06 06:59:12;;;;;;;;;22.67;18.00;;;;;13.77;68.38;102292.59;5033377;28;45424;-41
2023/10/06 07:01:38;;;;;;;;;22.00;15.67;;;;;13.82;68.43;102297.56;5033920;28;45347;-42
2023/10/06 07:04:07;;;;;;;;;18.00;15.67;;;;;13.86;68.29;102290.97;5033869;28;45259;-42
2023/10/06 07:06:33;;;;;;;;;22.33;16.33;;;;;13.94;68.31;102294.69;5033888;28;45409;-41
2023/10/06 07:08:59;;;;;;;;;22.00;18.33;;;;;13.99;67.70;102291.66;5031929;28;46919;-41
2023/10/06 07:11:26;;;;;;;;;19.33;18.00;;;;;13.96;67.65;102282.06;5033282;28;45471;-40
2023/10/06 07:13:52;;;;;;;;;20.67;15.67;;;;;14.11;67.52;102293.25;5033485;27;45564;-39
2023/10/06 07:16:17;;;;;;;;;31.00;19.00;;;;;14.12;67.05;102292.28;5033501;28;45391;-40
2023/10/06 07:18:43;;;;;;;;;26.00;16.67;;;;;14.08;67.24;102296.22;5033204;28;46212;-41
2023/10/06 07:21:09;;;;;;;;;19.67;16.00;;;;;14.02;67.39;102280.66;5034681;27;45457;-41
2023/10/06 07:23:37;;;;;;;;;19.67;16.00;;;;;14.14;67.45;102306.38;5036203;28;45409;-39
2023/10/06 07:26:09;;;;;;;;;19.67;16.33;;;;;14.14;67.53;102301.03;5036367;28;45446;-40
2023/10/06 07:28:35;;;;;;;;;26.67;19.33;;;;;14.15;67.87;102299.19;5036050;28;46290;-41
2023/10/06 07:31:00;;;;;;;;;20.33;16.67;;;;;14.23;67.58;102302.06;5036086;28;45401;-41
2023/10/06 07:33:26;;;;;;;;;20.33;19.33;;;;;14.27;67.49;102286.59;5036025;28;47602;-42
2023/10/06 07:35:53;;;;;;;;;36.33;22.33;;;;;14.42;67.23;102310.19;5036485;28;45237;-41
2023/10/06 07:38:19;;;;;;;;;22.00;18.33;;;;;14.51;66.99;102313.94;5036008;28;45419;-40
2023/10/06 07:40:44;;;;;;;;;27.67;19.00;;;;;14.59;66.57;102313.28;5036151;28;45361;-40
2023/10/06 07:43:10;;;;;;;;;27.67;21.67;;;;;14.60;66.58;102301.56;5036094;28;45305;-40
2023/10/06 07:45:36;;;;;;;;;24.33;21.00;;;;;14.61;66.68;102297.91;5035194;28;45428;-40
2023/10/06 07:48:05;;;;;;;;;23.33;21.33;;;;;14.68;66.15;102304.41;5035738;28;47220;-41
2023/10/06 07:50:33;;;;;;;;;42.00;32.00;;;;;14.85;66.29;102319.84;5034595;28;45322;-41
2023/10/06 07:53:00;;;;;;;;;13.00;13.00;;;;;14.91;66.05;102321.13;5036113;28;45211;-39
2023/10/06 07:55:25;;;;;;;;;20.67;16.67;;;;;14.98;65.80;102314.25;5036358;28;45251;-42
2023/10/06 07:57:51;;;;;;;;;17.67;17.67;;;;;15.08;65.51;102317.78;5035849;28;46155;-43
2023/10/06 08:00:27;;;;;;;;;31.33;21.00;;;;;15.08;65.44;102312.41;5035769;28;45353;-41
2023/10/06 08:02:54;;;;;;;;;20.00;15.33;;;;;15.17;65.15;102324.19;5035943;28;45422;-41
2023/10/06 08:05:20;;;;;;;;;22.00;17.67;;;;;15.31;64.95;102328.28;5036180;28;45430;-41
2023/10/06 08:07:45;;;;;;;;;22.33;20.67;;;;;15.46;64.64;102326.88;5035606;28;46036;-40
2023/10/06 08:10:15;;;;;;;;;19.67;14.67;;;;;15.57;64.51;102329.44;5034130;28;45328;-41
2023/10/06 08:12:49;;;;;;;;;19.67;19.67;;;;;15.77;64.01;102334.84;5030864;28;45366;-41
2023/10/06 08:15:21;;;;;;;;;28.67;17.67;;;;;16.16;62.62;102332.94;5033740;27;45431;-41
2023/10/06 08:17:53;;;;;;;;;18.67;15.67;;;;;17.31;61.06;102332.59;5015864;28;45419;-40
2023/10/06 08:20:20;;;;;;;;;22.33;19.00;;;;;18.23;57.41;102331.41;5032972;28;45444;-41
2023/10/06 08:22:46;;;;;;;;;19.33;19.00;;;;;18.93;55.34;102327.59;5033294;28;45418;-40
2023/10/06 08:25:16;;;;;;;;;27.33;21.67;;;;;19.00;54.94;102330.44;5033450;28;45469;-42
2023/10/06 08:27:42;;;;;;;;;18.67;17.33;;;;;19.06;54.75;102337.91;5033147;28;46206;-41
2023/10/06 08:30:16;;;;;;;;;25.67;22.00;;;;;19.51;53.92;102331.28;5032273;28;45414;-42
2023/10/06 08:32:44;;;;;;;;;23.67;20.00;;;;;19.73;53.32;102337.91;5032571;28;46336;-41
2023/10/06 08:35:13;;;;;;;;;22.33;20.67;;;;;19.88;52.83;102332.66;5033539;28;45458;-41
2023/10/06 08:37:42;;;;;;;;;33.00;21.00;;;;;20.00;53.36;102341.25;5033003;28;46068;-41
2023/10/06 08:40:26;;;;;;;;;19.00;18.67;;;;;20.18;52.55;102331.97;5032723;28;45409;-40
2023/10/06 08:42:56;;;;;;;;;31.67;22.33;;;;;20.52;51.92;102330.91;5032861;27;45468;-41
2023/10/06 08:45:21;;;;;;;;;31.00;23.67;;;;;20.87;50.08;102328.75;5033535;28;45732;-41
2023/10/06 08:47:52;;;;;;;;;24.00;19.33;;;;;21.29;48.84;102328.34;5032911;27;46035;-40
2023/10/06 08:50:22;;;;;;;;;29.00;23.00;;;;;21.65;48.54;102311.50;5032747;28;45465;-42
2023/10/06 08:52:50;;;;;;;;;26.25;22.25;;;;;22.09;47.96;102322.47;5033156;28;45441;-41
2023/10/06 08:55:17;;;;;;;;;25.75;21.25;;;;;22.56;46.85;102332.16;5033137;27;45430;-42
2023/10/06 08:57:45;;;;;;;;;26.75;24.50;;;;;22.75;46.93;102330.72;5032297;27;46424;-40
2023/10/06 09:00:13;;;;;;;;;29.50;23.25;;;;;22.98;46.75;102325.22;5032714;28;45568;-41
2023/10/06 09:02:41;;;;;;;;;29.00;22.00;;;;;23.06;46.09;102327.00;5032677;27;45471;-41
2023/10/06 09:05:11;;;;;;;;;22.75;21.75;;;;;23.12;46.45;102332.47;5032748;28;45242;-40
2023/10/06 09:07:37;;;;;;;;;29.00;23.00;;;;;23.21;45.47;102329.66;5032637;27;47375;-40
2023/10/06 09:10:19;;;;;;;;;29.50;25.50;;;;;23.36;47.20;102327.75;5031782;28;45378;-40
2023/10/06 09:12:45;;;;;;;;;27.75;22.75;;;;;23.58;43.40;102334.84;5032690;28;45406;-41
2023/10/06 09:15:18;;;;;;;;;27.00;21.25;;;;;23.60;45.08;102334.69;5032963;27;45543;-40
2023/10/06 09:17:45;;;;;;;;;26.00;22.75;;;;;23.70;43.81;102331.66;5031921;28;45465;-41
2023/10/06 09:20:11;;;;;;;;;21.00;20.20;;;;;23.68;43.90;102322.84;5014348;28;45606;-42
2023/10/06 09:22:44;;;;;;;;;29.75;23.00;;;;;23.69;44.08;102333.53;5032813;27;45511;-40
2023/10/06 09:25:10;;;;;;;;;27.00;22.75;;;;;23.96;43.64;102334.59;5032601;27;45495;-41
2023/10/06 09:27:37;;;;;;;;;28.25;24.50;;;;;24.17;43.53;102335.59;5032451;28;45898;-41
2023/10/06 09:30:11;;;;;;;;;25.20;22.60;;;;;24.26;42.98;102337.94;5032565;28;45536;-40
2023/10/06 09:32:39;;;;;;;;;25.25;21.75;;;;;24.45;42.50;102333.72;5031863;28;45800;-41
2023/10/06 09:35:21;;;;;;;;;28.25;25.25;;;;;24.46;42.51;102334.56;5032624;28;45350;-41
2023/10/06 09:37:46;;;;;;;;;26.75;20.50;;;;;24.52;43.05;102329.13;5032429;28;46119;-41
2023/10/06 09:40:20;;;;;;;;;23.25;20.25;;;;;24.67;41.98;102330.91;5032068;28;45409;-41
2023/10/06 09:42:50;;;;;;;;;25.00;22.25;;;;;24.80;42.40;102330.97;5031341;28;46400;-39
2023/10/06 09:45:21;;;;;;;;;25.25;23.50;;;;;24.84;41.65;102329.53;5032592;28;45218;-39
2023/10/06 09:47:56;;;;;;;;;31.00;24.00;;;;;24.89;41.65;102329.75;5032314;27;46203;-41
2023/10/06 09:50:23;;;;;;;;;25.80;23.00;;;;;25.04;41.35;102321.44;5032163;28;45381;-40
2023/10/06 09:52:50;;;;;;;;;25.40;20.60;;;;;25.24;40.90;102314.19;5031921;28;45605;-40
2023/10/06 09:55:20;;;;;;;;;24.25;23.25;;;;;25.38;41.75;102318.63;5032358;28;45516;-41
2023/10/06 09:57:50;;;;;;;;;25.20;20.80;;;;;25.59;40.37;102314.88;5032111;28;45375;-41
2023/10/06 10:00:19;;;;;;;;;25.40;24.20;;;;;25.65;40.48;102313.19;5013845;28;45458;-43
2023/10/06 10:02:49;;;;;;;;;24.60;20.60;;;;;25.71;40.31;102306.91;5032319;28;45388;-41
2023/10/06 10:05:19;;;;;;;;;24.40;20.20;;;;;25.95;39.22;102313.63;5031825;27;45570;-41
2023/10/06 10:07:46;;;;;;;;;24.80;21.60;;;;;26.18;39.43;102312.38;5032066;28;46147;-41
2023/10/06 10:10:13;;;;;;;;;25.20;20.00;;;;;26.48;38.80;102313.56;5031787;28;45479;-48
2023/10/06 10:12:42;;;;;;;;;20.60;16.00;;;;;26.72;38.65;102313.94;5031749;27;45233;-41
2023/10/06 10:15:26;;;;;;;;;24.40;21.40;;;;;26.98;38.67;102311.06;5032339;27;45539;-39
2023/10/06 10:18:29;;;;;;;;;23.20;18.00;;;;;27.38;37.74;102308.09;5031990;28;45476;-41
2023/10/06 10:20:59;;;;;;;;;20.60;16.80;;;;;27.81;36.50;102299.19;5031386;28;45416;-41
2023/10/06 10:23:26;;;;;;;;;20.60;17.20;;;;;28.09;35.65;102309.66;5031788;28;45487;-42
2023/10/06 10:25:52;;;;;;;;;17.40;17.00;;;;;28.53;35.01;102297.63;5031889;28;45359;-42
2023/10/06 10:28:27;;;;;;;;;21.75;15.25;;;;;28.93;34.16;102297.13;5031390;28;45754;-42
2023/10/06 10:30:56;;;;;;;;;28.60;20.60;;;;;29.36;32.81;102295.25;5030342;28;45594;-40
2023/10/06 10:33:29;;;;;;;;;19.00;18.40;;;;;29.62;33.11;102292.09;5031448;27;45463;-41
2023/10/06 10:36:14;;;;;;;;;17.60;16.00;;;;;29.93;33.03;102284.63;5031619;28;45557;-43
2023/10/06 10:38:41;;;;;;;;;20.80;17.60;;;;;30.23;32.06;102288.09;5030264;28;46262;-43
2023/10/06 10:41:08;;;;;;;;;20.80;17.80;;;;;30.56;31.68;102283.84;5031622;28;45512;-43
2023/10/06 10:43:45;;;;;;;;;20.20;14.80;;;;;31.06;31.19;102292.28;5030996;28;45448;-41
2023/10/06 10:46:12;;;;;;;;;13.60;12.80;;;;;31.66;29.61;102266.09;5031179;28;45373;-41
2023/10/06 10:48:47;;;;;;;;;17.40;11.80;;;;;32.32;29.00;102270.91;5031123;28;45436;-41
2023/10/06 10:51:14;;;;;;;;;15.00;11.60;;;;;33.12;28.08;102269.38;5030406;28;45465;-41
2023/10/06 10:53:47;;;;;;;;;12.60;12.00;;;;;34.01;26.91;102255.78;5031180;28;46645;-41
2023/10/06 10:56:26;;;;;;;;;16.60;11.60;;;;;35.22;26.40;102261.13;5016501;28;45665;-41
2023/10/06 10:58:53;;;;;;;;;8.40;7.60;;;;;36.62;23.60;102258.59;5034178;28;45476;-41
2023/10/06 11:01:44;;;;;;;;;6.00;5.60;;;;;38.12;23.50;102261.50;5034183;28;45479;-40
2023/10/06 11:04:09;;;;;;;;;7.00;5.40;;;;;39.38;20.66;102253.59;5034283;28;45402;-41
2023/10/06 11:06:38;;;;;;;;;10.50;7.25;;;;;40.29;21.73;102251.00;5034106;28;45244;-41
2023/10/06 11:09:12;;;;;;;;;6.60;6.00;;;;;41.10;17.85;102241.88;5034001;28;45551;-41
2023/10/06 11:11:41;;;;;;;;;9.60;7.00;;;;;41.75;18.34;102237.63;5017301;28;45476;-42
2023/10/06 11:14:07;;;;;;;;;8.20;7.60;;;;;42.10;17.41;102239.44;5034139;28;45398;-41
2023/10/06 11:16:32;;;;;;;;;10.25;5.00;;;;;42.56;17.15;102249.22;5034410;28;45435;-41
2023/10/06 11:19:03;;;;;;;;;7.50;5.25;;;;;43.03;16.77;102246.59;5033916;28;45615;-41
2023/10/06 11:21:30;;;;;;;;;10.80;8.20;;;;;43.45;16.05;102246.88;5033687;28;45883;-41